sensor_id;sensor_type;location;lat;lon;timestamp;P1;durP1;ratioP1;P2;durP2;ratioP2
11986;SDS011;6053;51.382;6.768;2023-11-21T00:00:04;1.17;;;1.17;;
11986;SDS011;6053;51.382;6.768;2023-11-21T00:02:39;1.13;;;1.13;;
11986;SDS011;6053;51.382;6.768;2023-11-21T00:05:16;1.20;;;1.20;;
11986;SDS011;6053;51.382;6.768;2023-11-21T00:07:44;1.20;;;1.20;;
11986;SDS011;6053;51.382;6.768;2023-11-21T00:10:13;1.50;;;1.27;;
11986;SDS011;6053;51.382;6.768;2023-11-21T00:12:42;1.27;;;1.27;;
11986;SDS011;6053;51.382;6.768;2023-11-21T00:15:21;1.20;;;1.20;;
11986;SDS011;6053;51.382;6.768;2023-11-21T00:17:50;1.00;;;1.00;;
11986;SDS011;6053;51.382;6.768;2023-11-21T00:20:25;1.10;;;1.10;;
11986;SDS011;6053;51.382;6.768;2023-11-21T00:22:54;1.30;;;1.30;;
11986;SDS011;6053;51.382;6.768;2023-11-21T00:25:21;1.20;;;1.20;;
11986;SDS011;6053;51.382;6.768;2023-11-21T00:27:54;1.15;;;1.15;;
11986;SDS011;6053;51.382;6.768;2023-11-21T00:30:22;1.20;;;1.20;;
11986;SDS011;6053;51.382;6.768;2023-11-21T00:32:56;1.10;;;1.10;;
11986;SDS011;6053;51.382;6.768;2023-11-21T00:35:29;1.20;;;1.20;;
11986;SDS011;6053;51.382;6.768;2023-11-21T00:38:01;1.30;;;1.30;;
11986;SDS011;6053;51.382;6.768;2023-11-21T00:40:29;1.63;;;1.52;;
11986;SDS011;6053;51.382;6.768;2023-11-21T00:43:01;1.25;;;1.25;;
11986;SDS011;6053;51.382;6.768;2023-11-21T00:45:35;1.20;;;1.20;;
11986;SDS011;6053;51.382;6.768;2023-11-21T00:48:03;1.30;;;1.30;;
11986;SDS011;6053;51.382;6.768;2023-11-21T00:50:36;1.58;;;1.50;;
11986;SDS011;6053;51.382;6.768;2023-11-21T00:53:04;1.27;;;1.27;;
11986;SDS011;6053;51.382;6.768;2023-11-21T00:55:33;1.30;;;1.30;;
11986;SDS011;6053;51.382;6.768;2023-11-21T00:58:12;1.30;;;1.30;;
11986;SDS011;6053;51.382;6.768;2023-11-21T01:00:41;1.38;;;1.27;;
11986;SDS011;6053;51.382;6.768;2023-11-21T01:03:10;1.20;;;1.20;;
11986;SDS011;6053;51.382;6.768;2023-11-21T01:05:40;1.27;;;1.23;;
11986;SDS011;6053;51.382;6.768;2023-11-21T01:08:08;1.20;;;1.20;;
11986;SDS011;6053;51.382;6.768;2023-11-21T01:10:36;1.40;;;1.40;;
11986;SDS011;6053;51.382;6.768;2023-11-21T01:13:11;1.40;;;1.40;;
11986;SDS011;6053;51.382;6.768;2023-11-21T01:15:43;1.27;;;1.27;;
11986;SDS011;6053;51.382;6.768;2023-11-21T01:18:11;1.17;;;1.17;;
11986;SDS011;6053;51.382;6.768;2023-11-21T01:20:41;1.35;;;1.35;;
11986;SDS011;6053;51.382;6.768;2023-11-21T01:23:16;1.40;;;1.40;;
11986;SDS011;6053;51.382;6.768;2023-11-21T01:25:47;1.40;;;1.40;;
11986;SDS011;6053;51.382;6.768;2023-11-21T01:28:21;1.20;;;1.20;;
11986;SDS011;6053;51.382;6.768;2023-11-21T01:30:49;1.45;;;1.45;;
11986;SDS011;6053;51.382;6.768;2023-11-21T01:33:24;1.17;;;1.17;;
11986;SDS011;6053;51.382;6.768;2023-11-21T01:35:57;1.47;;;1.40;;
11986;SDS011;6053;51.382;6.768;2023-11-21T01:38:35;1.30;;;1.30;;
11986;SDS011;6053;51.382;6.768;2023-11-21T01:41:03;1.30;;;1.30;;
11986;SDS011;6053;51.382;6.768;2023-11-21T01:43:34;1.50;;;1.50;;
11986;SDS011;6053;51.382;6.768;2023-11-21T01:46:06;1.10;;;1.10;;
11986;SDS011;6053;51.382;6.768;2023-11-21T01:48:35;1.30;;;1.30;;
11986;SDS011;6053;51.382;6.768;2023-11-21T01:51:15;1.20;;;1.20;;
11986;SDS011;6053;51.382;6.768;2023-11-21T01:53:44;1.13;;;1.13;;
11986;SDS011;6053;51.382;6.768;2023-11-21T01:56:14;1.38;;;1.38;;
11986;SDS011;6053;51.382;6.768;2023-11-21T01:58:47;1.50;;;1.40;;
11986;SDS011;6053;51.382;6.768;2023-11-21T02:01:18;1.33;;;1.23;;
11986;SDS011;6053;51.382;6.768;2023-11-21T02:03:46;1.20;;;1.20;;
11986;SDS011;6053;51.382;6.768;2023-11-21T02:06:24;1.40;;;1.40;;
11986;SDS011;6053;51.382;6.768;2023-11-21T02:09:02;1.40;;;1.30;;
11986;SDS011;6053;51.382;6.768;2023-11-21T02:11:31;1.50;;;1.50;;
11986;SDS011;6053;51.382;6.768;2023-11-21T02:14:02;1.10;;;1.10;;
11986;SDS011;6053;51.382;6.768;2023-11-21T02:16:33;1.60;;;1.50;;
11986;SDS011;6053;51.382;6.768;2023-11-21T02:19:02;1.20;;;1.20;;
11986;SDS011;6053;51.382;6.768;2023-11-21T02:21:36;1.33;;;1.33;;
11986;SDS011;6053;51.382;6.768;2023-11-21T02:24:08;1.23;;;1.23;;
11986;SDS011;6053;51.382;6.768;2023-11-21T02:26:37;1.30;;;1.30;;
11986;SDS011;6053;51.382;6.768;2023-11-21T02:29:05;1.27;;;1.27;;
11986;SDS011;6053;51.382;6.768;2023-11-21T02:31:39;1.30;;;1.20;;
11986;SDS011;6053;51.382;6.768;2023-11-21T02:34:17;1.23;;;1.23;;
11986;SDS011;6053;51.382;6.768;2023-11-21T02:36:53;1.20;;;1.20;;
11986;SDS011;6053;51.382;6.768;2023-11-21T02:39:25;1.13;;;1.13;;
11986;SDS011;6053;51.382;6.768;2023-11-21T02:41:53;1.00;;;1.00;;
11986;SDS011;6053;51.382;6.768;2023-11-21T02:44:21;1.20;;;1.20;;
11986;SDS011;6053;51.382;6.768;2023-11-21T02:46:53;1.20;;;1.20;;
11986;SDS011;6053;51.382;6.768;2023-11-21T02:49:25;1.33;;;1.33;;
11986;SDS011;6053;51.382;6.768;2023-11-21T02:51:57;1.30;;;1.30;;
11986;SDS011;6053;51.382;6.768;2023-11-21T02:54:36;1.27;;;1.27;;
11986;SDS011;6053;51.382;6.768;2023-11-21T02:57:04;1.17;;;1.08;;
11986;SDS011;6053;51.382;6.768;2023-11-21T02:59:33;1.10;;;1.10;;
11986;SDS011;6053;51.382;6.768;2023-11-21T03:02:05;1.30;;;1.30;;
11986;SDS011;6053;51.382;6.768;2023-11-21T03:04:35;1.20;;;1.20;;
11986;SDS011;6053;51.382;6.768;2023-11-21T03:07:09;1.20;;;1.20;;
11986;SDS011;6053;51.382;6.768;2023-11-21T03:09:39;1.23;;;1.23;;
11986;SDS011;6053;51.382;6.768;2023-11-21T03:12:08;1.17;;;1.17;;
11986;SDS011;6053;51.382;6.768;2023-11-21T03:14:41;1.17;;;1.17;;
11986;SDS011;6053;51.382;6.768;2023-11-21T03:17:15;1.20;;;1.20;;
11986;SDS011;6053;51.382;6.768;2023-11-21T03:19:43;1.10;;;1.10;;
11986;SDS011;6053;51.382;6.768;2023-11-21T03:22:24;1.55;;;1.45;;
11986;SDS011;6053;51.382;6.768;2023-11-21T03:24:54;1.30;;;1.30;;
11986;SDS011;6053;51.382;6.768;2023-11-21T03:27:28;1.30;;;1.30;;
11986;SDS011;6053;51.382;6.768;2023-11-21T03:29:59;1.30;;;1.30;;
11986;SDS011;6053;51.382;6.768;2023-11-21T03:32:33;1.15;;;1.15;;
11986;SDS011;6053;51.382;6.768;2023-11-21T03:35:05;0.98;;;0.98;;
11986;SDS011;6053;51.382;6.768;2023-11-21T03:37:39;1.30;;;1.30;;
11986;SDS011;6053;51.382;6.768;2023-11-21T03:40:13;1.17;;;1.17;;
11986;SDS011;6053;51.382;6.768;2023-11-21T03:42:45;3.10;;;1.30;;
11986;SDS011;6053;51.382;6.768;2023-11-21T03:45:19;1.25;;;1.25;;
11986;SDS011;6053;51.382;6.768;2023-11-21T03:47:50;1.20;;;1.20;;
11986;SDS011;6053;51.382;6.768;2023-11-21T03:50:22;1.20;;;1.20;;
11986;SDS011;6053;51.382;6.768;2023-11-21T03:52:51;1.30;;;1.30;;
11986;SDS011;6053;51.382;6.768;2023-11-21T03:55:21;1.48;;;1.48;;
11986;SDS011;6053;51.382;6.768;2023-11-21T03:57:51;2.08;;;1.98;;
11986;SDS011;6053;51.382;6.768;2023-11-21T04:00:31;1.63;;;1.58;;
11986;SDS011;6053;51.382;6.768;2023-11-21T04:03:05;1.35;;;1.30;;
11986;SDS011;6053;51.382;6.768;2023-11-21T04:05:34;1.30;;;1.30;;
11986;SDS011;6053;51.382;6.768;2023-11-21T04:08:05;1.60;;;1.60;;
11986;SDS011;6053;51.382;6.768;2023-11-21T04:10:44;1.55;;;1.50;;
11986;SDS011;6053;51.382;6.768;2023-11-21T04:13:12;1.50;;;1.40;;
11986;SDS011;6053;51.382;6.768;2023-11-21T04:15:41;1.38;;;1.38;;
11986;SDS011;6053;51.382;6.768;2023-11-21T04:18:12;1.40;;;1.40;;
11986;SDS011;6053;51.382;6.768;2023-11-21T04:20:48;1.60;;;1.60;;
11986;SDS011;6053;51.382;6.768;2023-11-21T04:23:22;1.50;;;1.50;;
11986;SDS011;6053;51.382;6.768;2023-11-21T04:25:54;1.40;;;1.40;;
11986;SDS011;6053;51.382;6.768;2023-11-21T04:28:23;1.48;;;1.48;;
11986;SDS011;6053;51.382;6.768;2023-11-21T04:30:54;1.00;;;1.00;;
11986;SDS011;6053;51.382;6.768;2023-11-21T04:33:23;1.35;;;1.35;;
11986;SDS011;6053;51.382;6.768;2023-11-21T04:36:03;1.30;;;1.30;;
11986;SDS011;6053;51.382;6.768;2023-11-21T04:38:35;1.38;;;1.27;;
11986;SDS011;6053;51.382;6.768;2023-11-21T04:41:05;1.50;;;1.50;;
11986;SDS011;6053;51.382;6.768;2023-11-21T04:43:34;1.50;;;1.50;;
11986;SDS011;6053;51.382;6.768;2023-11-21T04:46:08;1.30;;;1.30;;
11986;SDS011;6053;51.382;6.768;2023-11-21T04:48:39;1.20;;;1.20;;
11986;SDS011;6053;51.382;6.768;2023-11-21T04:51:10;1.40;;;1.40;;
11986;SDS011;6053;51.382;6.768;2023-11-21T04:53:39;1.30;;;1.30;;
11986;SDS011;6053;51.382;6.768;2023-11-21T04:56:09;1.40;;;1.30;;
11986;SDS011;6053;51.382;6.768;2023-11-21T04:58:37;1.30;;;1.30;;
11986;SDS011;6053;51.382;6.768;2023-11-21T05:01:09;1.35;;;1.35;;
11986;SDS011;6053;51.382;6.768;2023-11-21T05:03:44;1.30;;;1.30;;
11986;SDS011;6053;51.382;6.768;2023-11-21T05:06:13;1.20;;;1.20;;
11986;SDS011;6053;51.382;6.768;2023-11-21T05:08:41;1.40;;;1.30;;
11986;SDS011;6053;51.382;6.768;2023-11-21T05:11:26;1.10;;;1.10;;
11986;SDS011;6053;51.382;6.768;2023-11-21T05:13:59;1.60;;;1.50;;
11986;SDS011;6053;51.382;6.768;2023-11-21T05:16:34;1.27;;;1.27;;
11986;SDS011;6053;51.382;6.768;2023-11-21T05:19:03;1.40;;;1.40;;
11986;SDS011;6053;51.382;6.768;2023-11-21T05:21:35;1.30;;;1.30;;
11986;SDS011;6053;51.382;6.768;2023-11-21T05:24:07;1.43;;;1.43;;
11986;SDS011;6053;51.382;6.768;2023-11-21T05:26:37;1.13;;;1.13;;
11986;SDS011;6053;51.382;6.768;2023-11-21T05:29:09;1.38;;;1.38;;
11986;SDS011;6053;51.382;6.768;2023-11-21T05:31:38;1.55;;;1.48;;
11986;SDS011;6053;51.382;6.768;2023-11-21T05:34:07;1.25;;;1.25;;
11986;SDS011;6053;51.382;6.768;2023-11-21T05:36:35;1.27;;;1.27;;
11986;SDS011;6053;51.382;6.768;2023-11-21T05:39:07;1.40;;;1.30;;
11986;SDS011;6053;51.382;6.768;2023-11-21T05:41:39;1.10;;;1.10;;
11986;SDS011;6053;51.382;6.768;2023-11-21T05:44:07;1.10;;;1.10;;
11986;SDS011;6053;51.382;6.768;2023-11-21T05:46:48;1.30;;;1.30;;
11986;SDS011;6053;51.382;6.768;2023-11-21T05:49:16;1.40;;;1.40;;
11986;SDS011;6053;51.382;6.768;2023-11-21T05:51:54;1.20;;;1.20;;
11986;SDS011;6053;51.382;6.768;2023-11-21T05:54:27;1.30;;;1.30;;
11986;SDS011;6053;51.382;6.768;2023-11-21T05:56:59;1.20;;;1.20;;
11986;SDS011;6053;51.382;6.768;2023-11-21T05:59:27;1.20;;;1.20;;
11986;SDS011;6053;51.382;6.768;2023-11-21T06:01:56;1.10;;;1.10;;
11986;SDS011;6053;51.382;6.768;2023-11-21T06:04:25;1.25;;;1.25;;
11986;SDS011;6053;51.382;6.768;2023-11-21T06:06:54;1.15;;;1.15;;
11986;SDS011;6053;51.382;6.768;2023-11-21T06:09:28;1.30;;;1.30;;
11986;SDS011;6053;51.382;6.768;2023-11-21T06:12:05;1.10;;;1.10;;
11986;SDS011;6053;51.382;6.768;2023-11-21T06:14:34;1.20;;;1.20;;
11986;SDS011;6053;51.382;6.768;2023-11-21T06:17:03;1.23;;;1.23;;
11986;SDS011;6053;51.382;6.768;2023-11-21T06:19:36;1.38;;;1.30;;
11986;SDS011;6053;51.382;6.768;2023-11-21T06:22:04;1.33;;;1.33;;
11986;SDS011;6053;51.382;6.768;2023-11-21T06:24:33;1.35;;;1.35;;
11986;SDS011;6053;51.382;6.768;2023-11-21T06:27:12;1.10;;;1.10;;
11986;SDS011;6053;51.382;6.768;2023-11-21T06:29:51;1.63;;;1.52;;
11986;SDS011;6053;51.382;6.768;2023-11-21T06:32:19;1.40;;;1.40;;
11986;SDS011;6053;51.382;6.768;2023-11-21T06:34:49;1.30;;;1.30;;
11986;SDS011;6053;51.382;6.768;2023-11-21T06:37:17;1.70;;;1.70;;
11986;SDS011;6053;51.382;6.768;2023-11-21T06:39:47;1.80;;;1.70;;
11986;SDS011;6053;51.382;6.768;2023-11-21T06:42:17;1.75;;;1.65;;
11986;SDS011;6053;51.382;6.768;2023-11-21T06:44:45;1.83;;;1.80;;
11986;SDS011;6053;51.382;6.768;2023-11-21T06:47:17;1.80;;;1.70;;
11986;SDS011;6053;51.382;6.768;2023-11-21T06:49:46;1.70;;;1.60;;
11986;SDS011;6053;51.382;6.768;2023-11-21T06:52:21;2.08;;;1.98;;
11986;SDS011;6053;51.382;6.768;2023-11-21T06:54:52;1.60;;;1.60;;
11986;SDS011;6053;51.382;6.768;2023-11-21T06:57:24;1.88;;;1.77;;
11986;SDS011;6053;51.382;6.768;2023-11-21T06:59:54;1.98;;;1.88;;
11986;SDS011;6053;51.382;6.768;2023-11-21T07:02:23;1.90;;;1.80;;
11986;SDS011;6053;51.382;6.768;2023-11-21T07:04:52;1.60;;;1.60;;
11986;SDS011;6053;51.382;6.768;2023-11-21T07:07:23;2.28;;;1.80;;
11986;SDS011;6053;51.382;6.768;2023-11-21T07:09:54;1.90;;;1.80;;
11986;SDS011;6053;51.382;6.768;2023-11-21T07:12:33;1.77;;;1.70;;
11986;SDS011;6053;51.382;6.768;2023-11-21T07:15:07;1.80;;;1.73;;
11986;SDS011;6053;51.382;6.768;2023-11-21T07:17:36;1.83;;;1.73;;
11986;SDS011;6053;51.382;6.768;2023-11-21T07:20:12;1.98;;;1.88;;
11986;SDS011;6053;51.382;6.768;2023-11-21T07:22:43;3.53;;;3.23;;
11986;SDS011;6053;51.382;6.768;2023-11-21T07:25:12;1.90;;;1.80;;
11986;SDS011;6053;51.382;6.768;2023-11-21T07:27:41;2.20;;;2.10;;
11986;SDS011;6053;51.382;6.768;2023-11-21T07:30:11;1.92;;;1.83;;
11986;SDS011;6053;51.382;6.768;2023-11-21T07:32:46;2.40;;;2.30;;
11986;SDS011;6053;51.382;6.768;2023-11-21T07:35:15;2.10;;;2.00;;
11986;SDS011;6053;51.382;6.768;2023-11-21T07:37:50;1.67;;;1.67;;
11986;SDS011;6053;51.382;6.768;2023-11-21T07:40:22;3.10;;;2.90;;
11986;SDS011;6053;51.382;6.768;2023-11-21T07:42:51;1.70;;;1.60;;
11986;SDS011;6053;51.382;6.768;2023-11-21T07:45:20;1.60;;;1.60;;
11986;SDS011;6053;51.382;6.768;2023-11-21T07:47:52;1.73;;;1.73;;
11986;SDS011;6053;51.382;6.768;2023-11-21T07:50:23;1.80;;;1.80;;
11986;SDS011;6053;51.382;6.768;2023-11-21T07:52:53;1.70;;;1.60;;
11986;SDS011;6053;51.382;6.768;2023-11-21T07:55:30;1.88;;;1.77;;
11986;SDS011;6053;51.382;6.768;2023-11-21T07:58:03;1.60;;;1.60;;
11986;SDS011;6053;51.382;6.768;2023-11-21T08:00:37;2.15;;;2.05;;
11986;SDS011;6053;51.382;6.768;2023-11-21T08:03:08;2.00;;;1.90;;
11986;SDS011;6053;51.382;6.768;2023-11-21T08:05:38;2.00;;;1.90;;
11986;SDS011;6053;51.382;6.768;2023-11-21T08:08:12;2.10;;;2.00;;
11986;SDS011;6053;51.382;6.768;2023-11-21T08:11:05;1.90;;;1.80;;
11986;SDS011;6053;51.382;6.768;2023-11-21T08:13:41;2.03;;;1.92;;
11986;SDS011;6053;51.382;6.768;2023-11-21T08:16:10;1.80;;;1.70;;
11986;SDS011;6053;51.382;6.768;2023-11-21T08:18:38;2.00;;;1.90;;
11986;SDS011;6053;51.382;6.768;2023-11-21T08:21:07;2.20;;;2.10;;
11986;SDS011;6053;51.382;6.768;2023-11-21T08:23:38;1.90;;;1.80;;
11986;SDS011;6053;51.382;6.768;2023-11-21T08:26:09;1.92;;;1.83;;
11986;SDS011;6053;51.382;6.768;2023-11-21T08:28:37;2.00;;;1.90;;
11986;SDS011;6053;51.382;6.768;2023-11-21T08:31:14;2.10;;;2.00;;
11986;SDS011;6053;51.382;6.768;2023-11-21T08:33:42;2.33;;;2.22;;
11986;SDS011;6053;51.382;6.768;2023-11-21T08:36:11;2.00;;;1.90;;
11986;SDS011;6053;51.382;6.768;2023-11-21T08:38:39;1.95;;;1.85;;
11986;SDS011;6053;51.382;6.768;2023-11-21T08:41:07;2.00;;;1.90;;
11986;SDS011;6053;51.382;6.768;2023-11-21T08:43:36;2.20;;;2.10;;
11986;SDS011;6053;51.382;6.768;2023-11-21T08:46:06;1.90;;;1.80;;
11986;SDS011;6053;51.382;6.768;2023-11-21T08:48:37;1.95;;;1.85;;
11986;SDS011;6053;51.382;6.768;2023-11-21T08:51:05;1.70;;;1.70;;
11986;SDS011;6053;51.382;6.768;2023-11-21T08:53:40;1.50;;;1.50;;
11986;SDS011;6053;51.382;6.768;2023-11-21T08:56:12;1.80;;;1.80;;
11986;SDS011;6053;51.382;6.768;2023-11-21T08:58:41;1.63;;;1.60;;
11986;SDS011;6053;51.382;6.768;2023-11-21T09:01:10;1.80;;;1.70;;
11986;SDS011;6053;51.382;6.768;2023-11-21T09:03:40;1.52;;;1.50;;
11986;SDS011;6053;51.382;6.768;2023-11-21T09:06:11;1.90;;;1.80;;
11986;SDS011;6053;51.382;6.768;2023-11-21T09:08:40;1.63;;;1.60;;
11986;SDS011;6053;51.382;6.768;2023-11-21T09:11:09;1.40;;;1.40;;
11986;SDS011;6053;51.382;6.768;2023-11-21T09:13:47;1.48;;;1.48;;
11986;SDS011;6053;51.382;6.768;2023-11-21T09:16:19;1.67;;;1.67;;
11986;SDS011;6053;51.382;6.768;2023-11-21T09:18:48;1.73;;;1.73;;
11986;SDS011;6053;51.382;6.768;2023-11-21T09:21:17;1.80;;;1.70;;
11986;SDS011;6053;51.382;6.768;2023-11-21T09:23:48;1.70;;;1.60;;
11986;SDS011;6053;51.382;6.768;2023-11-21T09:26:19;1.55;;;1.55;;
11986;SDS011;6053;51.382;6.768;2023-11-21T09:28:53;1.88;;;1.77;;
11986;SDS011;6053;51.382;6.768;2023-11-21T09:31:23;1.90;;;1.80;;
11986;SDS011;6053;51.382;6.768;2023-11-21T09:33:52;1.33;;;1.33;;
11986;SDS011;6053;51.382;6.768;2023-11-21T09:36:27;1.60;;;1.50;;
11986;SDS011;6053;51.382;6.768;2023-11-21T09:39:00;1.33;;;1.33;;
11986;SDS011;6053;51.382;6.768;2023-11-21T09:41:33;1.85;;;1.77;;
11986;SDS011;6053;51.382;6.768;2023-11-21T09:44:11;1.70;;;1.70;;
11986;SDS011;6053;51.382;6.768;2023-11-21T09:46:44;1.60;;;1.50;;
11986;SDS011;6053;51.382;6.768;2023-11-21T09:49:29;1.60;;;1.60;;
11986;SDS011;6053;51.382;6.768;2023-11-21T09:52:03;1.73;;;1.63;;
11986;SDS011;6053;51.382;6.768;2023-11-21T09:54:38;1.58;;;1.50;;
11986;SDS011;6053;51.382;6.768;2023-11-21T09:57:07;1.85;;;1.75;;
11986;SDS011;6053;51.382;6.768;2023-11-21T09:59:38;1.50;;;1.50;;
11986;SDS011;6053;51.382;6.768;2023-11-21T10:02:07;2.10;;;2.00;;
11986;SDS011;6053;51.382;6.768;2023-11-21T10:04:56;1.60;;;1.50;;
11986;SDS011;6053;51.382;6.768;2023-11-21T10:07:29;1.70;;;1.70;;
11986;SDS011;6053;51.382;6.768;2023-11-21T10:10:05;2.03;;;1.92;;
11986;SDS011;6053;51.382;6.768;2023-11-21T10:12:38;1.70;;;1.60;;
11986;SDS011;6053;51.382;6.768;2023-11-21T10:15:15;1.60;;;1.60;;
11986;SDS011;6053;51.382;6.768;2023-11-21T10:17:50;1.77;;;1.67;;
11986;SDS011;6053;51.382;6.768;2023-11-21T10:20:22;1.50;;;1.50;;
11986;SDS011;6053;51.382;6.768;2023-11-21T10:22:52;1.50;;;1.45;;
11986;SDS011;6053;51.382;6.768;2023-11-21T10:25:37;1.52;;;1.52;;
11986;SDS011;6053;51.382;6.768;2023-11-21T10:28:05;1.80;;;1.70;;
11986;SDS011;6053;51.382;6.768;2023-11-21T10:30:39;2.00;;;1.90;;
11986;SDS011;6053;51.382;6.768;2023-11-21T10:33:08;1.98;;;1.88;;
11986;SDS011;6053;51.382;6.768;2023-11-21T10:35:41;2.72;;;2.53;;
11986;SDS011;6053;51.382;6.768;2023-11-21T10:38:24;1.98;;;1.88;;
11986;SDS011;6053;51.382;6.768;2023-11-21T10:40:54;2.67;;;2.47;;
11986;SDS011;6053;51.382;6.768;2023-11-21T10:43:24;2.67;;;2.47;;
11986;SDS011;6053;51.382;6.768;2023-11-21T10:45:54;2.20;;;2.10;;
11986;SDS011;6053;51.382;6.768;2023-11-21T10:48:27;2.10;;;2.00;;
11986;SDS011;6053;51.382;6.768;2023-11-21T10:51:07;2.50;;;2.30;;
11986;SDS011;6053;51.382;6.768;2023-11-21T10:53:40;2.15;;;2.05;;
11986;SDS011;6053;51.382;6.768;2023-11-21T10:56:12;2.08;;;1.98;;
11986;SDS011;6053;51.382;6.768;2023-11-21T10:58:44;2.10;;;2.00;;
11986;SDS011;6053;51.382;6.768;2023-11-21T11:01:16;3.13;;;2.80;;
11986;SDS011;6053;51.382;6.768;2023-11-21T11:03:47;3.10;;;2.90;;
11986;SDS011;6053;51.382;6.768;2023-11-21T11:06:22;2.80;;;2.60;;
11986;SDS011;6053;51.382;6.768;2023-11-21T11:08:57;3.25;;;2.95;;
11986;SDS011;6053;51.382;6.768;2023-11-21T11:11:30;2.83;;;2.63;;
11986;SDS011;6053;51.382;6.768;2023-11-21T11:13:58;2.75;;;2.55;;
11986;SDS011;6053;51.382;6.768;2023-11-21T11:16:30;3.05;;;2.80;;
11986;SDS011;6053;51.382;6.768;2023-11-21T11:19:07;2.88;;;2.67;;
11986;SDS011;6053;51.382;6.768;2023-11-21T11:21:42;2.55;;;2.35;;
11986;SDS011;6053;51.382;6.768;2023-11-21T11:24:45;3.05;;;2.78;;
11986;SDS011;6053;51.382;6.768;2023-11-21T11:27:48;2.45;;;2.30;;
11986;SDS011;6053;51.382;6.768;2023-11-21T11:30:26;2.28;;;2.17;;
11986;SDS011;6053;51.382;6.768;2023-11-21T11:33:24;2.60;;;2.40;;
11986;SDS011;6053;51.382;6.768;2023-11-21T11:36:08;2.50;;;2.30;;
11986;SDS011;6053;51.382;6.768;2023-11-21T11:39:00;2.92;;;2.72;;
11986;SDS011;6053;51.382;6.768;2023-11-21T11:41:30;2.85;;;2.63;;
11986;SDS011;6053;51.382;6.768;2023-11-21T11:44:09;2.50;;;2.30;;
11986;SDS011;6053;51.382;6.768;2023-11-21T11:47:22;3.17;;;2.97;;
11986;SDS011;6053;51.382;6.768;2023-11-21T11:50:07;6.85;;;5.13;;
11986;SDS011;6053;51.382;6.768;2023-11-21T11:52:40;2.63;;;2.42;;
11986;SDS011;6053;51.382;6.768;2023-11-21T11:55:14;2.58;;;2.38;;
11986;SDS011;6053;51.382;6.768;2023-11-21T11:57:45;7.82;;;5.60;;
11986;SDS011;6053;51.382;6.768;2023-11-21T12:00:21;2.85;;;2.65;;
11986;SDS011;6053;51.382;6.768;2023-11-21T12:03:07;2.72;;;2.53;;
11986;SDS011;6053;51.382;6.768;2023-11-21T12:05:37;2.35;;;2.25;;
11986;SDS011;6053;51.382;6.768;2023-11-21T12:08:07;3.15;;;2.85;;
11986;SDS011;6053;51.382;6.768;2023-11-21T12:10:40;2.70;;;2.50;;
11986;SDS011;6053;51.382;6.768;2023-11-21T12:13:09;3.22;;;2.92;;
11986;SDS011;6053;51.382;6.768;2023-11-21T12:15:39;2.65;;;2.45;;
11986;SDS011;6053;51.382;6.768;2023-11-21T12:18:12;8.23;;;5.60;;
11986;SDS011;6053;51.382;6.768;2023-11-21T12:20:40;2.65;;;2.47;;
11986;SDS011;6053;51.382;6.768;2023-11-21T12:23:13;2.42;;;2.30;;
11986;SDS011;6053;51.382;6.768;2023-11-21T12:25:45;2.63;;;2.42;;
11986;SDS011;6053;51.382;6.768;2023-11-21T12:28:14;3.50;;;3.20;;
11986;SDS011;6053;51.382;6.768;2023-11-21T12:30:43;2.80;;;2.60;;
11986;SDS011;6053;51.382;6.768;2023-11-21T12:33:14;3.20;;;2.78;;
11986;SDS011;6053;51.382;6.768;2023-11-21T12:35:53;4.28;;;3.88;;
11986;SDS011;6053;51.382;6.768;2023-11-21T12:38:24;4.00;;;3.67;;
11986;SDS011;6053;51.382;6.768;2023-11-21T12:41:02;3.22;;;2.92;;
11986;SDS011;6053;51.382;6.768;2023-11-21T12:43:33;4.72;;;3.83;;
11986;SDS011;6053;51.382;6.768;2023-11-21T12:46:05;3.67;;;3.00;;
11986;SDS011;6053;51.382;6.768;2023-11-21T12:48:36;3.53;;;3.30;;
11986;SDS011;6053;51.382;6.768;2023-11-21T12:51:09;5.63;;;4.57;;
11986;SDS011;6053;51.382;6.768;2023-11-21T12:53:38;6.90;;;5.45;;
11986;SDS011;6053;51.382;6.768;2023-11-21T12:56:09;2.70;;;2.50;;
11986;SDS011;6053;51.382;6.768;2023-11-21T12:58:38;18.90;;;9.97;;
11986;SDS011;6053;51.382;6.768;2023-11-21T13:01:12;14.77;;;8.82;;
11986;SDS011;6053;51.382;6.768;2023-11-21T13:03:48;7.45;;;5.68;;
11986;SDS011;6053;51.382;6.768;2023-11-21T13:06:18;8.70;;;5.65;;
11986;SDS011;6053;51.382;6.768;2023-11-21T13:08:54;6.03;;;4.60;;
11986;SDS011;6053;51.382;6.768;2023-11-21T13:11:25;3.28;;;3.08;;
11986;SDS011;6053;51.382;6.768;2023-11-21T13:13:54;3.03;;;2.83;;
11986;SDS011;6053;51.382;6.768;2023-11-21T13:16:30;5.00;;;4.37;;
11986;SDS011;6053;51.382;6.768;2023-11-21T13:19:05;12.35;;;6.90;;
11986;SDS011;6053;51.382;6.768;2023-11-21T13:21:37;3.05;;;2.85;;
11986;SDS011;6053;51.382;6.768;2023-11-21T13:24:06;2.90;;;2.60;;
11986;SDS011;6053;51.382;6.768;2023-11-21T13:26:37;5.40;;;4.40;;
11986;SDS011;6053;51.382;6.768;2023-11-21T13:29:07;4.47;;;3.95;;
11986;SDS011;6053;51.382;6.768;2023-11-21T13:31:35;4.10;;;3.70;;
11986;SDS011;6053;51.382;6.768;2023-11-21T13:34:05;3.35;;;3.05;;
11986;SDS011;6053;51.382;6.768;2023-11-21T13:36:46;3.45;;;3.15;;
11986;SDS011;6053;51.382;6.768;2023-11-21T13:39:36;2.13;;;2.03;;
11986;SDS011;6053;51.382;6.768;2023-11-21T13:42:15;2.20;;;2.00;;
11986;SDS011;6053;51.382;6.768;2023-11-21T13:44:43;2.10;;;2.00;;
11986;SDS011;6053;51.382;6.768;2023-11-21T13:47:16;2.05;;;1.95;;
11986;SDS011;6053;51.382;6.768;2023-11-21T13:49:45;1.95;;;1.85;;
11986;SDS011;6053;51.382;6.768;2023-11-21T13:52:15;1.90;;;1.80;;
11986;SDS011;6053;51.382;6.768;2023-11-21T13:54:49;1.60;;;1.60;;
11986;SDS011;6053;51.382;6.768;2023-11-21T13:57:19;1.45;;;1.45;;
11986;SDS011;6053;51.382;6.768;2023-11-21T13:59:47;2.28;;;2.10;;
11986;SDS011;6053;51.382;6.768;2023-11-21T14:02:18;2.40;;;2.30;;
11986;SDS011;6053;51.382;6.768;2023-11-21T14:05:01;1.60;;;1.60;;
11986;SDS011;6053;51.382;6.768;2023-11-21T14:07:50;1.38;;;1.38;;
11986;SDS011;6053;51.382;6.768;2023-11-21T14:10:19;3.20;;;3.00;;
11986;SDS011;6053;51.382;6.768;2023-11-21T14:12:52;1.40;;;1.40;;
11986;SDS011;6053;51.382;6.768;2023-11-21T14:15:20;1.50;;;1.50;;
11986;SDS011;6053;51.382;6.768;2023-11-21T14:17:48;2.20;;;2.10;;
11986;SDS011;6053;51.382;6.768;2023-11-21T14:20:20;1.40;;;1.40;;
11986;SDS011;6053;51.382;6.768;2023-11-21T14:22:48;1.25;;;1.25;;
11986;SDS011;6053;51.382;6.768;2023-11-21T14:25:18;1.30;;;1.30;;
11986;SDS011;6053;51.382;6.768;2023-11-21T14:28:01;1.40;;;1.40;;
11986;SDS011;6053;51.382;6.768;2023-11-21T14:30:38;2.27;;;2.07;;
11986;SDS011;6053;51.382;6.768;2023-11-21T14:33:07;2.00;;;1.90;;
11986;SDS011;6053;51.382;6.768;2023-11-21T14:35:37;1.35;;;1.35;;
11986;SDS011;6053;51.382;6.768;2023-11-21T14:38:12;1.08;;;1.08;;
11986;SDS011;6053;51.382;6.768;2023-11-21T14:40:47;2.50;;;2.30;;
11986;SDS011;6053;51.382;6.768;2023-11-21T14:43:17;1.83;;;1.73;;
11986;SDS011;6053;51.382;6.768;2023-11-21T14:45:49;1.40;;;1.40;;
11986;SDS011;6053;51.382;6.768;2023-11-21T14:48:18;2.65;;;2.45;;
11986;SDS011;6053;51.382;6.768;2023-11-21T14:51:03;1.37;;;1.37;;
11986;SDS011;6053;51.382;6.768;2023-11-21T14:53:54;1.20;;;1.20;;
11986;SDS011;6053;51.382;6.768;2023-11-21T14:56:21;1.27;;;1.27;;
11986;SDS011;6053;51.382;6.768;2023-11-21T14:58:54;1.02;;;1.02;;
11986;SDS011;6053;51.382;6.768;2023-11-21T15:01:23;1.37;;;1.37;;
11986;SDS011;6053;51.382;6.768;2023-11-21T15:04:17;2.22;;;2.13;;
11986;SDS011;6053;51.382;6.768;2023-11-21T15:07:02;1.17;;;1.17;;
11986;SDS011;6053;51.382;6.768;2023-11-21T15:09:31;3.40;;;3.10;;
11986;SDS011;6053;51.382;6.768;2023-11-21T15:12:07;2.22;;;2.13;;
11986;SDS011;6053;51.382;6.768;2023-11-21T15:14:45;4.20;;;3.80;;
11986;SDS011;6053;51.382;6.768;2023-11-21T15:17:18;2.50;;;2.40;;
11986;SDS011;6053;51.382;6.768;2023-11-21T15:19:52;2.97;;;2.77;;
11986;SDS011;6053;51.382;6.768;2023-11-21T15:22:30;2.00;;;1.90;;
11986;SDS011;6053;51.382;6.768;2023-11-21T15:25:12;4.13;;;3.75;;
11986;SDS011;6053;51.382;6.768;2023-11-21T15:27:41;3.45;;;3.25;;
11986;SDS011;6053;51.382;6.768;2023-11-21T15:30:24;1.85;;;1.75;;
11986;SDS011;6053;51.382;6.768;2023-11-21T15:32:56;3.25;;;3.05;;